createdAt,value
2023-03-16T00:01:05.332Z,4.72
2023-03-16T00:03:34.794Z,4.75
2023-03-16T00:06:02.851Z,4.50
2023-03-16T00:08:30.704Z,5.03
2023-03-16T00:10:59.338Z,4.82
2023-03-16T00:13:29.407Z,4.50
2023-03-16T00:16:02.965Z,4.63
2023-03-16T00:18:31.602Z,5.07
2023-03-16T00:21:05.647Z,5.55
2023-03-16T00:23:36.128Z,5.22
2023-03-16T00:26:07.754Z,5.88
2023-03-16T00:28:36.665Z,6.07
2023-03-16T00:31:11.992Z,5.85
2023-03-16T00:33:43.013Z,5.88
2023-03-16T00:36:11.878Z,6.68
2023-03-16T00:38:45.508Z,6.78
2023-03-16T00:41:15.195Z,6.57
2023-03-16T00:43:44.525Z,8.50
2023-03-16T00:46:17.492Z,6.93
2023-03-16T00:48:47.371Z,8.20
2023-03-16T00:51:17.536Z,8.38
2023-03-16T00:53:47.086Z,8.63
2023-03-16T00:56:16.172Z,8.65
2023-03-16T00:58:44.159Z,8.40
2023-03-16T01:01:15.869Z,8.95
2023-03-16T01:03:44.915Z,9.43
2023-03-16T01:06:16.561Z,8.50
2023-03-16T01:08:45.095Z,8.15
2023-03-16T01:11:16.584Z,8.20
2023-03-16T01:13:47.398Z,8.45
2023-03-16T01:16:18.602Z,7.78
2023-03-16T01:18:48.479Z,7.57
2023-03-16T01:21:16.507Z,8.77
2023-03-16T01:23:44.510Z,9.07
2023-03-16T01:26:15.375Z,8.43
2023-03-16T01:28:44.635Z,8.43
2023-03-16T01:31:14.550Z,7.82
2023-03-16T01:33:44.185Z,9.02
2023-03-16T01:36:18.575Z,7.18
2023-03-16T01:39:03.537Z,8.18
2023-03-16T01:41:36.781Z,6.95
2023-03-16T01:44:05.875Z,7.30
2023-03-16T01:46:34.442Z,6.85
2023-03-16T01:49:12.470Z,6.93
2023-03-16T01:51:45.790Z,7.45
2023-03-16T01:54:16.556Z,6.47
2023-03-16T01:56:52.288Z,6.85
2023-03-16T01:59:24.081Z,7.43
2023-03-16T02:01:52.835Z,6.60
2023-03-16T02:04:49.115Z,6.47
2023-03-16T02:07:22.720Z,7.60
2023-03-16T02:09:54.181Z,7.20
2023-03-16T02:12:24.296Z,7.50
2023-03-16T02:14:57.149Z,7.65
2023-03-16T02:17:31.305Z,6.90
2023-03-16T02:20:16.394Z,6.00
2023-03-16T02:22:48.081Z,6.25
2023-03-16T02:25:18.852Z,6.45
2023-03-16T02:28:11.289Z,5.80
2023-03-16T02:30:44.015Z,5.93
2023-03-16T02:33:15.102Z,5.78
2023-03-16T02:35:45.100Z,5.68
2023-03-16T02:38:12.930Z,6.18
2023-03-16T02:40:58.475Z,6.35
2023-03-16T02:43:33.560Z,6.38
2023-03-16T02:46:19.875Z,5.43
2023-03-16T02:49:03.696Z,6.47
2023-03-16T02:51:32.657Z,6.40
2023-03-16T02:54:00.558Z,6.70
2023-03-16T02:56:30.833Z,6.53
2023-03-16T02:58:58.902Z,6.28
2023-03-16T03:01:27.356Z,6.78
2023-03-16T03:03:55.678Z,7.63
2023-03-16T03:06:25.708Z,6.78
2023-03-16T03:08:53.575Z,8.23
2023-03-16T03:11:22.281Z,7.32
2023-03-16T03:13:50.657Z,8.25
2023-03-16T03:16:22.485Z,7.55
2023-03-16T03:18:52.998Z,7.20
2023-03-16T03:21:21.539Z,7.95
2023-03-16T03:23:49.343Z,7.80
2023-03-16T03:26:17.415Z,7.80
2023-03-16T03:28:46.302Z,7.28
2023-03-16T03:31:22.486Z,7.30
2023-03-16T03:33:54.396Z,7.80
2023-03-16T03:36:23.500Z,8.65
2023-03-16T03:38:51.372Z,7.68
2023-03-16T03:41:22.523Z,7.32
2023-03-16T03:43:53.558Z,7.53
2023-03-16T03:46:21.686Z,7.53
2023-03-16T03:48:49.520Z,7.80
2023-03-16T03:51:17.481Z,7.20
2023-03-16T03:53:59.055Z,6.68
2023-03-16T03:56:41.311Z,6.60
2023-03-16T03:59:13.337Z,6.50
2023-03-16T04:02:01.361Z,6.68
2023-03-16T04:04:41.254Z,5.53
2023-03-16T04:07:16.174Z,6.10
2023-03-16T04:09:47.093Z,7.03
2023-03-16T04:12:44.690Z,5.73
2023-03-16T04:15:15.001Z,5.93
2023-03-16T04:17:55.285Z,6.50
2023-03-16T04:20:23.985Z,5.97
2023-03-16T04:22:58.860Z,6.32
2023-03-16T04:25:28.404Z,6.82
2023-03-16T04:27:56.531Z,6.63
2023-03-16T04:30:28.024Z,6.82
2023-03-16T04:33:04.715Z,6.72
2023-03-16T04:35:32.710Z,7.35
2023-03-16T04:38:02.496Z,7.97
2023-03-16T04:40:41.154Z,7.18
2023-03-16T04:43:14.821Z,6.45
2023-03-16T04:45:43.511Z,7.30
2023-03-16T04:48:11.847Z,6.32
2023-03-16T04:50:41.089Z,6.78
2023-03-16T04:53:10.805Z,7.05
2023-03-16T04:55:39.027Z,6.93
2023-03-16T04:58:07.738Z,6.10
2023-03-16T05:00:41.509Z,6.70
2023-03-16T05:03:22.570Z,6.78
2023-03-16T05:05:52.019Z,7.13
2023-03-16T05:08:21.297Z,6.70
2023-03-16T05:10:51.237Z,7.25
2023-03-16T05:13:21.209Z,7.18
2023-03-16T05:15:54.181Z,6.63
2023-03-16T05:18:27.730Z,7.57
2023-03-16T05:20:56.447Z,7.40
2023-03-16T05:23:28.401Z,6.40
2023-03-16T05:26:01.283Z,7.57
2023-03-16T05:28:32.584Z,7.07
2023-03-16T05:31:11.233Z,6.88
2023-03-16T05:33:44.757Z,6.32
2023-03-16T05:36:17.665Z,7.97
2023-03-16T05:38:48.954Z,8.57
2023-03-16T05:41:27.628Z,9.02
2023-03-16T05:44:08.829Z,7.93
2023-03-16T05:46:54.481Z,6.75
2023-03-16T05:49:22.453Z,5.85
2023-03-16T05:51:50.919Z,5.70
2023-03-16T05:54:18.833Z,5.43
2023-03-16T05:56:48.112Z,5.65
2023-03-16T05:59:18.363Z,5.05
2023-03-16T06:01:52.137Z,4.47
2023-03-16T06:04:22.589Z,6.28
2023-03-16T06:06:50.385Z,5.50
2023-03-16T06:09:22.373Z,6.50
2023-03-16T06:11:50.729Z,5.90
2023-03-16T06:14:19.678Z,6.13
2023-03-16T06:16:47.758Z,6.18
2023-03-16T06:19:17.277Z,5.15
2023-03-16T06:21:49.865Z,5.72
2023-03-16T06:24:19.753Z,5.68
2023-03-16T06:26:48.743Z,11.10
2023-03-16T06:29:18.125Z,11.40
2023-03-16T06:31:46.330Z,9.18
2023-03-16T06:34:14.246Z,8.25
2023-03-16T06:36:42.300Z,8.30
2023-03-16T06:39:14.521Z,7.15
2023-03-16T06:41:51.622Z,7.32
2023-03-16T06:44:19.615Z,7.35
2023-03-16T06:47:10.672Z,7.10
2023-03-16T06:49:39.262Z,6.32
2023-03-16T06:52:15.339Z,6.18
2023-03-16T06:54:44.374Z,7.22
2023-03-16T06:57:13.370Z,7.32
2023-03-16T07:02:51.954Z,6.68
2023-03-16T07:05:22.031Z,6.57
2023-03-16T07:07:54.575Z,6.90
2023-03-16T07:10:22.647Z,6.80
2023-03-16T07:12:50.914Z,3.97
2023-03-16T07:15:19.930Z,4.30
2023-03-16T07:17:48.414Z,6.40
2023-03-16T07:20:16.601Z,6.47
2023-03-16T07:22:44.893Z,6.72
2023-03-16T07:25:14.564Z,6.82
2023-03-16T07:27:48.119Z,7.07
2023-03-16T07:30:21.794Z,7.00
2023-03-16T07:32:50.793Z,7.25
2023-03-16T07:35:20.468Z,8.23
2023-03-16T07:37:48.810Z,7.78
2023-03-16T07:40:17.088Z,8.48
2023-03-16T07:42:44.839Z,8.10
2023-03-16T07:45:18.253Z,8.60
2023-03-16T07:47:48.219Z,8.05
2023-03-16T07:50:25.013Z,7.68
2023-03-16T07:52:54.535Z,7.90
2023-03-16T07:55:22.514Z,9.15
2023-03-16T07:57:53.149Z,7.80
2023-03-16T08:00:29.140Z,8.13
2023-03-16T08:02:58.235Z,8.25
2023-03-16T08:05:27.788Z,8.60
2023-03-16T08:08:01.978Z,7.70
2023-03-16T08:10:32.719Z,7.38
2023-03-16T08:13:07.494Z,8.35
2023-03-16T08:15:37.236Z,8.20
2023-03-16T08:18:14.128Z,8.53
2023-03-16T08:20:42.352Z,8.20
2023-03-16T08:23:13.305Z,8.90
2023-03-16T08:25:42.637Z,8.00
2023-03-16T08:28:16.234Z,8.90
2023-03-16T08:30:47.414Z,8.45
2023-03-16T08:33:43.026Z,8.43
2023-03-16T08:36:13.844Z,7.18
2023-03-16T08:38:53.540Z,8.93
2023-03-16T08:41:31.063Z,8.10
2023-03-16T08:44:03.636Z,7.97
2023-03-16T08:46:31.642Z,8.63
2023-03-16T08:49:01.413Z,8.25
2023-03-16T08:51:29.762Z,9.48
2023-03-16T08:53:57.632Z,8.65
2023-03-16T08:56:30.582Z,8.75
2023-03-16T08:58:58.572Z,8.77
2023-03-16T09:01:28.945Z,8.63
2023-03-16T09:03:56.748Z,9.45
2023-03-16T09:06:26.085Z,9.02
2023-03-16T09:08:56.316Z,9.57
2023-03-16T09:11:27.134Z,9.73
2023-03-16T09:13:54.970Z,9.57
2023-03-16T09:16:26.055Z,9.52
2023-03-16T09:18:56.049Z,9.88
2023-03-16T09:21:24.131Z,8.90
2023-03-16T09:23:52.099Z,10.27
2023-03-16T09:26:21.135Z,10.05
2023-03-16T09:28:49.559Z,9.63
2023-03-16T09:31:20.164Z,11.68
2023-03-16T09:33:48.165Z,11.30
2023-03-16T09:36:16.391Z,10.90
2023-03-16T09:38:45.804Z,10.88
2023-03-16T09:41:31.693Z,11.52
2023-03-16T09:44:17.422Z,11.00
2023-03-16T09:46:49.761Z,11.27
2023-03-16T09:49:21.118Z,10.10
2023-03-16T09:51:52.398Z,8.35
2023-03-16T09:54:39.379Z,7.57
2023-03-16T09:57:24.863Z,7.18
2023-03-16T09:59:53.346Z,5.05
2023-03-16T10:02:52.298Z,6.20
2023-03-16T10:05:24.443Z,4.97
2023-03-16T10:08:26.911Z,4.32
2023-03-16T10:11:29.169Z,4.05
2023-03-16T10:14:11.782Z,3.65
2023-03-16T10:16:55.587Z,3.17
2023-03-16T10:19:37.801Z,3.47
2023-03-16T10:22:20.660Z,3.53
2023-03-16T10:25:02.195Z,3.40
2023-03-16T10:27:39.170Z,3.60
2023-03-16T10:30:19.963Z,2.95
2023-03-16T10:32:49.641Z,3.17
2023-03-16T10:35:34.637Z,2.85
2023-03-16T10:38:02.536Z,2.92
2023-03-16T10:40:38.722Z,3.35
2023-03-16T10:43:16.595Z,2.97
2023-03-16T10:45:49.034Z,3.35
2023-03-16T10:48:19.789Z,3.50
2023-03-16T10:50:54.550Z,3.38
2023-03-16T10:53:26.917Z,4.35
2023-03-16T10:56:09.668Z,4.53
2023-03-16T10:58:42.756Z,4.70
2023-03-16T11:01:13.932Z,5.90
2023-03-16T11:03:42.037Z,5.28
2023-03-16T11:06:20.717Z,5.28
2023-03-16T11:08:49.008Z,5.10
2023-03-16T11:11:21.676Z,4.60
2023-03-16T11:13:49.471Z,3.78
2023-03-16T11:16:48.967Z,4.18
2023-03-16T11:19:38.332Z,4.05
2023-03-16T11:22:13.422Z,4.20
2023-03-16T11:25:03.695Z,4.38
2023-03-16T11:27:43.565Z,3.80
2023-03-16T11:30:24.142Z,3.17
2023-03-16T11:32:54.526Z,3.40
2023-03-16T11:35:59.457Z,4.25
2023-03-16T11:38:46.388Z,3.60
2023-03-16T11:41:29.168Z,3.33
2023-03-16T11:44:01.836Z,2.92
2023-03-16T11:46:46.158Z,2.67
2023-03-16T11:49:56.237Z,3.40
2023-03-16T11:52:58.665Z,2.80
2023-03-16T11:55:58.745Z,3.90
2023-03-16T11:58:49.886Z,3.72
2023-03-16T12:02:00.793Z,3.65
2023-03-16T12:05:00.226Z,20.00
2023-03-16T12:07:38.298Z,15.18
2023-03-16T12:10:23.759Z,11.73
2023-03-16T12:13:17.843Z,7.78
2023-03-16T12:16:05.964Z,4.97
2023-03-16T12:18:43.857Z,4.65
2023-03-16T12:21:25.174Z,3.90
2023-03-16T12:23:59.595Z,3.88
2023-03-16T12:26:32.769Z,4.75
2023-03-16T12:29:13.357Z,5.68
2023-03-16T12:31:53.487Z,5.80
2023-03-16T12:34:41.483Z,7.60
2023-03-16T12:37:22.841Z,9.52
2023-03-16T12:40:41.375Z,8.68
2023-03-16T12:43:16.174Z,9.77
2023-03-16T12:45:55.213Z,9.95
2023-03-16T12:48:34.243Z,8.73
2023-03-16T12:51:05.327Z,6.65
2023-03-16T12:53:40.121Z,5.00
2023-03-16T12:56:10.341Z,5.95
2023-03-16T12:59:07.944Z,6.90
2023-03-16T13:01:44.019Z,16.08
2023-03-16T13:04:14.978Z,20.02
2023-03-16T13:06:50.706Z,14.95
2023-03-16T13:09:24.942Z,11.15
2023-03-16T13:11:57.804Z,7.80
2023-03-16T13:14:44.502Z,6.40
2023-03-16T13:17:18.937Z,7.43
2023-03-16T13:20:29.987Z,7.05
2023-03-16T13:23:19.304Z,4.80
2023-03-16T13:26:03.409Z,4.00
2023-03-16T13:28:35.706Z,4.00
2023-03-16T13:31:05.842Z,5.18
2023-03-16T13:33:37.298Z,5.15
2023-03-16T13:36:06.571Z,5.30
2023-03-16T13:38:34.587Z,4.50
2023-03-16T13:41:09.671Z,3.85
2023-03-16T13:43:44.881Z,3.40
2023-03-16T13:46:22.707Z,3.20
2023-03-16T13:48:55.548Z,2.83
2023-03-16T13:51:24.106Z,4.35
2023-03-16T13:53:53.809Z,5.57
2023-03-16T13:56:29.428Z,5.97
2023-03-16T13:58:59.401Z,6.75
2023-03-16T14:01:30.749Z,5.75
2023-03-16T14:04:08.678Z,5.30
2023-03-16T14:06:36.876Z,4.47
2023-03-16T14:09:08.178Z,4.22
2023-03-16T14:11:35.993Z,4.00
2023-03-16T14:14:17.588Z,4.93
2023-03-16T14:16:45.917Z,5.28
2023-03-16T14:19:32.391Z,6.20
2023-03-16T14:22:04.535Z,4.93
2023-03-16T14:24:38.456Z,4.40
2023-03-16T14:27:19.093Z,3.67
2023-03-16T14:29:54.096Z,3.33
2023-03-16T14:32:28.549Z,4.05
2023-03-16T14:35:17.778Z,3.60
2023-03-16T14:37:45.824Z,3.10
2023-03-16T14:40:31.811Z,4.00
2023-03-16T14:43:04.045Z,3.03
2023-03-16T14:45:35.431Z,3.42
2023-03-16T14:48:07.067Z,4.38
2023-03-16T14:50:35.237Z,4.68
2023-03-16T14:53:04.465Z,3.95
2023-03-16T14:55:32.368Z,3.97
2023-03-16T14:58:00.274Z,4.18
2023-03-16T15:00:30.160Z,4.32
2023-03-16T15:03:08.439Z,5.57
2023-03-16T15:05:39.542Z,4.97
2023-03-16T15:08:17.878Z,4.70
2023-03-16T15:10:47.562Z,4.40
2023-03-16T15:13:38.832Z,4.03
2023-03-16T15:16:09.969Z,3.92
2023-03-16T15:18:39.919Z,4.05
2023-03-16T15:21:18.293Z,3.67
2023-03-16T15:23:46.390Z,3.75
2023-03-16T15:26:19.520Z,3.38
2023-03-16T15:28:48.034Z,2.88
2023-03-16T15:31:15.999Z,2.70
2023-03-16T15:33:45.706Z,2.83
2023-03-16T15:36:19.431Z,3.30
2023-03-16T15:38:51.768Z,2.92
2023-03-16T15:41:20.154Z,2.75
2023-03-16T15:43:48.273Z,3.28
2023-03-16T15:46:16.946Z,2.53
2023-03-16T15:48:44.823Z,2.55
2023-03-16T15:51:23.242Z,2.38
2023-03-16T15:53:54.984Z,2.45
2023-03-16T15:56:30.322Z,2.15
2023-03-16T15:59:04.268Z,2.63
2023-03-16T16:01:39.667Z,2.38
2023-03-16T16:04:15.600Z,2.25
2023-03-16T16:06:45.902Z,3.20
2023-03-16T16:09:15.344Z,3.60
2023-03-16T16:11:47.294Z,3.53
2023-03-16T16:14:18.357Z,3.90
2023-03-16T16:16:46.517Z,4.32
2023-03-16T16:19:15.981Z,4.78
2023-03-16T16:21:45.132Z,4.70
2023-03-16T16:24:13.837Z,5.43
2023-03-16T16:26:54.388Z,3.90
2023-03-16T16:29:33.785Z,3.80
2023-03-16T16:32:02.145Z,2.42
2023-03-16T16:34:30.310Z,2.83
2023-03-16T16:36:58.223Z,2.97
2023-03-16T16:39:26.553Z,2.38
2023-03-16T16:41:56.958Z,2.67
2023-03-16T16:44:30.866Z,3.30
2023-03-16T16:47:00.125Z,2.28
2023-03-16T16:49:31.174Z,2.63
2023-03-16T16:51:59.818Z,2.47
2023-03-16T16:54:30.294Z,2.60
2023-03-16T16:57:01.964Z,2.22
2023-03-16T16:59:33.525Z,2.67
2023-03-16T17:02:03.553Z,2.47
2023-03-16T17:04:31.621Z,2.38
2023-03-16T17:07:04.260Z,2.38
2023-03-16T17:09:31.977Z,2.08
2023-03-16T17:12:02.140Z,2.50
2023-03-16T17:14:31.594Z,2.47
2023-03-16T17:17:02.907Z,2.45
2023-03-16T17:19:32.943Z,1.92
2023-03-16T17:22:28.770Z,2.63
2023-03-16T17:24:57.437Z,2.15
2023-03-16T17:27:29.708Z,2.40
2023-03-16T17:29:58.204Z,2.70
2023-03-16T17:32:29.205Z,2.72
2023-03-16T17:34:57.098Z,2.70
2023-03-16T17:37:26.220Z,2.45
2023-03-16T17:39:56.320Z,2.22
2023-03-16T17:42:26.762Z,2.38
2023-03-16T17:44:56.982Z,3.35
2023-03-16T17:47:27.654Z,4.10
2023-03-16T17:49:57.249Z,4.03
2023-03-16T17:52:28.496Z,3.60
2023-03-16T17:54:56.724Z,3.30
2023-03-16T17:57:28.452Z,2.92
2023-03-16T17:59:56.748Z,3.33
2023-03-16T18:02:27.506Z,3.17
2023-03-16T18:04:55.563Z,3.17
2023-03-16T18:07:25.230Z,3.00
2023-03-16T18:09:55.147Z,3.28
2023-03-16T18:12:24.567Z,3.10
2023-03-16T18:14:58.634Z,2.85
2023-03-16T18:17:31.275Z,3.65
2023-03-16T18:20:01.355Z,3.47
2023-03-16T18:22:29.860Z,3.03
2023-03-16T18:24:57.851Z,3.10
2023-03-16T18:27:25.824Z,2.60
2023-03-16T18:29:55.177Z,3.05
2023-03-16T18:32:29.785Z,3.13
2023-03-16T18:34:58.604Z,3.08
2023-03-16T18:37:30.299Z,2.90
2023-03-16T18:40:00.628Z,3.60
2023-03-16T18:42:28.495Z,3.15
2023-03-16T18:44:56.448Z,2.88
2023-03-16T18:47:26.629Z,3.33
2023-03-16T18:49:54.515Z,4.82
2023-03-16T18:52:28.645Z,6.50
2023-03-16T18:54:58.419Z,7.50
2023-03-16T18:57:28.250Z,7.22
2023-03-16T18:59:56.425Z,6.35
2023-03-16T19:02:39.122Z,5.43
2023-03-16T19:05:20.042Z,5.80
2023-03-16T19:07:51.657Z,5.10
2023-03-16T19:10:36.677Z,4.72
2023-03-16T19:13:21.895Z,4.10
2023-03-16T19:15:52.337Z,3.83
2023-03-16T19:18:20.437Z,5.15
2023-03-16T19:20:51.272Z,4.03
2023-03-16T19:23:31.267Z,6.47
2023-03-16T19:26:00.708Z,8.13
2023-03-16T19:28:34.279Z,6.20
2023-03-16T19:31:04.224Z,6.32
2023-03-16T19:33:32.377Z,8.48
2023-03-16T19:36:00.207Z,5.82
2023-03-16T19:38:28.463Z,5.65
2023-03-16T19:40:59.230Z,5.10
2023-03-16T19:43:28.738Z,4.40
2023-03-16T19:45:59.052Z,5.10
2023-03-16T19:48:32.982Z,5.97
2023-03-16T19:51:02.320Z,8.00
2023-03-16T19:53:30.355Z,8.88
2023-03-16T19:56:01.758Z,9.52
2023-03-16T19:58:33.452Z,7.53
2023-03-16T20:01:02.307Z,6.60
2023-03-16T20:03:33.482Z,6.00
2023-03-16T20:06:01.370Z,7.10
2023-03-16T20:08:30.023Z,6.95
2023-03-16T20:11:07.411Z,6.15
2023-03-16T20:13:36.843Z,8.32
2023-03-16T20:16:07.230Z,11.93
2023-03-16T20:18:35.330Z,10.48
2023-03-16T20:21:03.248Z,11.23
2023-03-16T20:23:31.559Z,11.23
2023-03-16T20:26:02.689Z,10.95
2023-03-16T20:28:36.495Z,12.30
2023-03-16T20:31:08.679Z,11.43
2023-03-16T20:33:36.599Z,9.80
2023-03-16T20:36:04.808Z,9.90
2023-03-16T20:38:32.939Z,8.90
2023-03-16T20:41:01.330Z,6.68
2023-03-16T20:43:32.160Z,6.22
2023-03-16T20:46:02.654Z,6.45
2023-03-16T20:48:31.218Z,5.72
2023-03-16T20:51:00.704Z,4.82
2023-03-16T20:53:28.739Z,4.60
2023-03-16T20:55:57.214Z,5.40
2023-03-16T20:58:28.221Z,4.88
2023-03-16T21:01:02.810Z,4.60
2023-03-16T21:03:33.715Z,4.75
2023-03-16T21:06:01.639Z,4.68
2023-03-16T21:08:29.958Z,5.40
2023-03-16T21:10:59.989Z,6.43
2023-03-16T21:13:33.573Z,11.18
2023-03-16T21:16:03.653Z,12.38
2023-03-16T21:18:31.847Z,13.65
2023-03-16T21:20:59.844Z,13.23
2023-03-16T21:23:28.170Z,13.30
2023-03-16T21:26:04.072Z,11.60
2023-03-16T21:28:34.209Z,9.00
2023-03-16T21:31:03.356Z,10.05
2023-03-16T21:33:33.784Z,10.50
2023-03-16T21:36:02.677Z,10.27
2023-03-16T21:38:33.328Z,11.02
2023-03-16T21:41:04.002Z,10.73
2023-03-16T21:43:32.326Z,11.10
2023-03-16T21:46:00.343Z,11.85
2023-03-16T21:48:36.434Z,11.77
2023-03-16T21:51:18.607Z,10.05
2023-03-16T21:53:47.960Z,7.88
2023-03-16T21:56:19.118Z,10.82
2023-03-16T21:58:47.964Z,9.85
2023-03-16T22:01:25.179Z,9.10
2023-03-16T22:03:57.485Z,9.13
2023-03-16T22:06:28.226Z,7.57
2023-03-16T22:08:57.827Z,6.82
2023-03-16T22:11:28.823Z,6.80
2023-03-16T22:13:59.477Z,7.30
2023-03-16T22:16:34.973Z,7.53
2023-03-16T22:19:04.543Z,7.68
2023-03-16T22:21:41.099Z,6.90
2023-03-16T22:24:24.577Z,6.63
2023-03-16T22:26:54.515Z,6.60
2023-03-16T22:29:34.871Z,7.72
2023-03-16T22:32:23.436Z,6.45
2023-03-16T22:35:00.029Z,5.55
2023-03-16T22:37:29.330Z,5.07
2023-03-16T22:39:58.674Z,4.70
2023-03-16T22:42:38.242Z,4.43
2023-03-16T22:45:34.064Z,4.10
2023-03-16T22:48:15.338Z,3.45
2023-03-16T22:50:46.818Z,4.60
2023-03-16T22:53:25.774Z,3.80
2023-03-16T22:55:55.809Z,4.47
2023-03-16T22:58:36.996Z,3.97
2023-03-16T23:01:17.329Z,4.35
2023-03-16T23:03:47.675Z,4.63
2023-03-16T23:06:24.744Z,4.85
2023-03-16T23:11:28.398Z,4.13
2023-03-16T23:13:56.585Z,4.40
2023-03-16T23:16:26.036Z,4.15
2023-03-16T23:18:53.975Z,4.88
2023-03-16T23:21:25.782Z,4.47
2023-03-16T23:24:03.611Z,3.88
2023-03-16T23:26:33.230Z,4.53
2023-03-16T23:29:01.445Z,3.83
2023-03-16T23:31:29.785Z,3.70
2023-03-16T23:33:59.567Z,3.80
2023-03-16T23:36:28.429Z,3.67
2023-03-16T23:38:57.947Z,4.10
2023-03-16T23:41:25.969Z,4.07
2023-03-16T23:43:54.378Z,4.45
2023-03-16T23:46:24.751Z,4.30
2023-03-16T23:48:55.771Z,4.50
2023-03-16T23:51:28.268Z,4.63
2023-03-16T23:53:56.638Z,4.40
2023-03-16T23:56:27.408Z,4.93
2023-03-16T23:58:55.368Z,4.90
